Time,TemperatureF,DewpointF,PressureIn,WindDirection,WindDirectionDegrees,WindSpeedMPH,WindSpeedGustMPH,Humidity,HourlyPrecipIn,Conditions,Clouds,dailyrainin,SoftwareType,DateUTC
2013-06-08 00:00:00,57.9,51.8,29.95,ENE,65,1.0,7.0,80,0.00,,,0.00,Wunderground v.1.15,2013-06-08 05:00:00,
2013-06-08 00:05:00,57.8,51.3,29.96,ENE,68,1.0,7.0,79,0.00,,,0.00,Wunderground v.1.15,2013-06-08 05:05:00,
2013-06-08 00:10:00,57.6,51.1,29.96,ENE,69,0.0,7.0,79,0.00,,,0.00,Wunderground v.1.15,2013-06-08 05:10:00,
2013-06-08 00:15:00,57.4,50.6,29.96,ENE,69,0.0,7.0,78,0.00,,,0.00,Wunderground v.1.15,2013-06-08 05:15:00,
2013-06-08 00:20:00,57.3,50.5,29.96,ENE,69,0.0,7.0,78,0.00,,,0.00,Wunderground v.1.15,2013-06-08 05:20:00,
2013-06-08 00:25:00,57.2,50.7,29.96,ENE,69,0.0,7.0,79,0.00,,,0.00,Wunderground v.1.15,2013-06-08 05:25:00,
2013-06-08 00:35:00,56.9,49.8,29.96,ENE,69,0.0,7.0,77,0.00,,,0.00,Wunderground v.1.15,2013-06-08 05:35:00,
2013-06-08 00:40:00,56.8,49.7,29.96,ENE,69,0.0,7.0,77,0.00,,,0.00,Wunderground v.1.15,2013-06-08 05:40:00,
2013-06-08 00:45:00,56.7,49.9,29.96,ENE,69,0.0,7.0,78,0.00,,,0.00,Wunderground v.1.15,2013-06-08 05:45:00,
2013-06-08 00:50:00,56.5,49.7,29.96,ENE,69,0.0,7.0,78,0.00,,,0.00,Wunderground v.1.15,2013-06-08 05:50:00,
2013-06-08 00:55:00,56.3,49.5,29.96,ENE,69,0.0,7.0,78,0.00,,,0.00,Wunderground v.1.15,2013-06-08 05:55:00,
2013-06-08 01:00:00,56.1,49.3,29.96,ENE,69,0.0,7.0,78,0.00,,,0.00,Wunderground v.1.15,2013-06-08 06:00:00,
2013-06-08 01:05:00,55.9,49.1,29.96,ENE,69,0.0,7.0,78,0.00,,,0.00,Wunderground v.1.15,2013-06-08 06:05:00,
2013-06-08 01:10:00,55.8,49.0,29.95,ENE,69,0.0,7.0,78,0.00,,,0.00,Wunderground v.1.15,2013-06-08 06:10:00,
2013-06-08 01:15:00,55.7,49.3,29.95,ENE,69,0.0,7.0,79,0.00,,,0.00,Wunderground v.1.15,2013-06-08 06:15:00,
2013-06-08 01:20:00,55.5,49.4,29.95,ENE,69,0.0,7.0,80,0.00,,,0.00,Wunderground v.1.15,2013-06-08 06:20:00,
2013-06-08 01:25:00,55.3,48.9,29.95,ENE,69,0.0,7.0,79,0.00,,,0.00,Wunderground v.1.15,2013-06-08 06:25:00,
2013-06-08 01:35:00,54.8,48.7,29.95,ENE,69,0.0,7.0,80,0.00,,,0.00,Wunderground v.1.15,2013-06-08 06:35:00,
2013-06-08 01:40:00,54.6,48.6,29.95,ENE,71,0.0,7.0,80,0.00,,,0.00,Wunderground v.1.15,2013-06-08 06:40:00,
2013-06-08 01:45:00,54.5,48.5,29.95,ENE,71,0.0,7.0,80,0.00,,,0.00,Wunderground v.1.15,2013-06-08 06:45:00,
2013-06-08 01:50:00,54.4,48.4,29.95,ENE,71,0.0,7.0,80,0.00,,,0.00,Wunderground v.1.15,2013-06-08 06:50:00,
2013-06-08 01:55:00,54.3,48.6,29.95,ENE,71,0.0,7.0,81,0.00,,,0.00,Wunderground v.1.15,2013-06-08 06:55:00,
2013-06-08 02:05:00,53.8,47.8,29.95,ENE,71,0.0,7.0,80,0.00,,,0.00,Wunderground v.1.15,2013-06-08 07:05:00,
2013-06-08 02:10:00,53.5,47.1,29.95,ENE,71,0.0,7.0,79,0.00,,,0.00,Wunderground v.1.15,2013-06-08 07:10:00,
2013-06-08 02:15:00,53.3,47.3,29.95,ENE,71,0.0,7.0,80,0.00,,,0.00,Wunderground v.1.15,2013-06-08 07:15:00,
2013-06-08 02:20:00,53.1,47.1,29.96,ENE,71,0.0,7.0,80,0.00,,,0.00,Wunderground v.1.15,2013-06-08 07:20:00,
2013-06-08 02:25:00,52.8,46.8,29.96,ENE,71,0.0,7.0,80,0.00,,,0.00,Wunderground v.1.15,2013-06-08 07:25:00,
2013-06-08 02:30:00,52.7,46.7,29.96,ENE,71,0.0,7.0,80,0.00,,,0.00,Wunderground v.1.15,2013-06-08 07:30:00,
2013-06-08 02:40:00,52.3,46.6,29.96,ENE,71,0.0,7.0,81,0.00,,,0.00,Wunderground v.1.15,2013-06-08 07:40:00,
2013-06-08 02:45:00,52.1,46.4,29.96,ENE,71,0.0,7.0,81,0.00,,,0.00,Wunderground v.1.15,2013-06-08 07:45:00,
2013-06-08 02:50:00,51.8,45.8,29.96,ENE,71,0.0,7.0,80,0.00,,,0.00,Wunderground v.1.15,2013-06-08 07:50:00,
2013-06-08 02:55:00,51.7,46.4,29.95,ENE,71,0.0,7.0,82,0.00,,,0.00,Wunderground v.1.15,2013-06-08 07:55:00,
2013-06-08 03:00:00,51.6,46.9,29.95,ENE,71,0.0,7.0,84,0.00,,,0.00,Wunderground v.1.15,2013-06-08 08:00:00,
2013-06-08 03:10:00,51.1,45.8,29.95,ENE,71,0.0,7.0,82,0.00,,,0.00,Wunderground v.1.15,2013-06-08 08:10:00,
2013-06-08 03:15:00,50.8,45.8,29.95,ENE,71,0.0,7.0,83,0.00,,,0.00,Wunderground v.1.15,2013-06-08 08:15:00,
2013-06-08 03:20:00,50.7,46.0,29.95,ENE,71,0.0,7.0,84,0.00,,,0.00,Wunderground v.1.15,2013-06-08 08:20:00,
2013-06-08 03:25:00,50.6,46.6,29.95,ENE,71,0.0,7.0,86,0.00,,,0.00,Wunderground v.1.15,2013-06-08 08:25:00,
2013-06-08 03:30:00,50.4,46.7,29.95,ENE,71,0.0,7.0,87,0.00,,,0.00,Wunderground v.1.15,2013-06-08 08:30:00,
2013-06-08 03:35:00,50.4,47.0,29.95,ENE,71,0.0,7.0,88,0.00,,,0.00,Wunderground v.1.15,2013-06-08 08:35:00,
2013-06-08 03:45:00,50.1,47.0,29.95,ENE,71,0.0,7.0,89,0.00,,,0.00,Wunderground v.1.15,2013-06-08 08:45:00,
2013-06-08 03:50:00,49.9,46.8,29.95,ENE,71,0.0,7.0,89,0.00,,,0.00,Wunderground v.1.15,2013-06-08 08:50:00,
2013-06-08 03:55:00,49.8,47.0,29.95,ENE,71,0.0,7.0,90,0.00,,,0.00,Wunderground v.1.15,2013-06-08 08:55:00,
2013-06-08 04:00:00,49.7,47.2,29.95,ENE,71,0.0,7.0,91,0.00,,,0.00,Wunderground v.1.15,2013-06-08 09:00:00,
2013-06-08 04:05:00,49.6,46.8,29.95,ENE,71,0.0,7.0,90,0.00,,,0.00,Wunderground v.1.15,2013-06-08 09:05:00,
2013-06-08 04:14:00,49.4,46.9,29.95,ENE,71,0.0,7.0,91,0.00,,,0.00,Wunderground v.1.15,2013-06-08 09:14:00,
2013-06-08 04:19:00,49.2,46.7,29.95,ENE,71,0.0,7.0,91,0.00,,,0.00,Wunderground v.1.15,2013-06-08 09:19:00,
2013-06-08 04:24:00,49.0,46.5,29.95,ENE,71,0.0,7.0,91,0.00,,,0.00,Wunderground v.1.15,2013-06-08 09:24:00,
2013-06-08 04:29:00,48.8,46.3,29.95,ENE,71,0.0,7.0,91,0.00,,,0.00,Wunderground v.1.15,2013-06-08 09:29:00,
2013-06-08 04:35:00,48.7,46.5,29.95,ENE,71,0.0,7.0,92,0.00,,,0.00,Wunderground v.1.15,2013-06-08 09:35:00,
2013-06-08 04:40:00,48.7,46.5,29.95,ENE,71,0.0,7.0,92,0.00,,,0.00,Wunderground v.1.15,2013-06-08 09:40:00,
2013-06-08 04:45:00,48.5,46.3,29.95,ENE,71,0.0,7.0,92,0.00,,,0.00,Wunderground v.1.15,2013-06-08 09:45:00,
2013-06-08 04:50:00,48.4,46.2,29.95,ENE,71,0.0,7.0,92,0.00,,,0.00,Wunderground v.1.15,2013-06-08 09:50:00,
2013-06-08 04:59:00,48.2,46.3,29.95,ENE,71,0.0,7.0,93,0.00,,,0.00,Wunderground v.1.15,2013-06-08 09:59:00,
2013-06-08 05:05:00,48.1,46.2,29.95,ENE,71,0.0,7.0,93,0.00,,,0.00,Wunderground v.1.15,2013-06-08 10:05:00,
2013-06-08 05:10:00,48.1,46.2,29.96,ENE,71,0.0,7.0,93,0.00,,,0.00,Wunderground v.1.15,2013-06-08 10:10:00,
2013-06-08 05:15:00,48.1,46.5,29.96,ENE,71,0.0,7.0,94,0.00,,,0.00,Wunderground v.1.15,2013-06-08 10:15:00,
2013-06-08 05:20:00,48.0,46.4,29.96,ENE,71,0.0,7.0,94,0.00,,,0.00,Wunderground v.1.15,2013-06-08 10:20:00,
2013-06-08 05:25:00,48.0,46.4,29.97,ENE,71,0.0,7.0,94,0.00,,,0.00,Wunderground v.1.15,2013-06-08 10:25:00,
2013-06-08 05:30:00,47.8,46.2,29.97,ENE,71,0.0,7.0,94,0.00,,,0.00,Wunderground v.1.15,2013-06-08 10:30:00,
2013-06-08 05:35:00,47.6,46.0,29.97,ENE,71,0.0,7.0,94,0.00,,,0.00,Wunderground v.1.15,2013-06-08 10:35:00,
2013-06-08 05:40:00,47.6,46.0,29.97,ENE,71,0.0,7.0,94,0.00,,,0.00,Wunderground v.1.15,2013-06-08 10:40:00,
2013-06-08 05:50:00,47.5,45.9,29.98,ENE,71,0.0,7.0,94,0.00,,,0.00,Wunderground v.1.15,2013-06-08 10:50:00,
2013-06-08 05:55:00,47.5,46.1,29.98,ENE,71,0.0,7.0,95,0.00,,,0.00,Wunderground v.1.15,2013-06-08 10:55:00,
2013-06-08 06:00:00,47.6,46.2,29.98,ENE,71,0.0,7.0,95,0.00,,,0.00,Wunderground v.1.15,2013-06-08 11:00:00,
2013-06-08 06:05:00,47.6,46.2,29.98,ENE,71,0.0,7.0,95,0.00,,,0.00,Wunderground v.1.15,2013-06-08 11:05:00,
2013-06-08 06:10:00,47.7,46.3,29.98,ENE,71,0.0,7.0,95,0.00,,,0.00,Wunderground v.1.15,2013-06-08 11:10:00,
2013-06-08 06:15:00,48.1,47.0,29.98,ENE,71,0.0,7.0,96,0.00,,,0.00,Wunderground v.1.15,2013-06-08 11:15:00,
2013-06-08 06:25:00,48.5,47.4,29.98,ENE,71,0.0,7.0,96,0.00,,,0.00,Wunderground v.1.15,2013-06-08 11:25:00,
2013-06-08 06:30:00,49.0,47.9,29.98,ENE,71,0.0,7.0,96,0.00,,,0.00,Wunderground v.1.15,2013-06-08 11:30:00,
2013-06-08 06:35:00,49.4,48.6,29.98,ENE,71,0.0,7.0,97,0.00,,,0.00,Wunderground v.1.15,2013-06-08 11:35:00,
2013-06-08 06:40:00,49.9,49.1,29.98,ENE,71,0.0,7.0,97,0.00,,,0.00,Wunderground v.1.15,2013-06-08 11:40:00,
2013-06-08 06:45:00,50.3,49.5,29.98,ENE,71,0.0,7.0,97,0.00,,,0.00,Wunderground v.1.15,2013-06-08 11:45:00,
2013-06-08 06:55:00,51.0,49.9,29.98,ENE,71,0.0,7.0,96,0.00,,,0.00,Wunderground v.1.15,2013-06-08 11:55:00,
2013-06-08 07:00:00,51.4,50.6,29.99,ENE,71,0.0,7.0,97,0.00,,,0.00,Wunderground v.1.15,2013-06-08 12:00:00,
2013-06-08 07:05:00,51.6,50.5,29.99,ENE,71,0.0,7.0,96,0.00,,,0.00,Wunderground v.1.15,2013-06-08 12:05:00,
2013-06-08 07:10:00,51.8,50.7,29.99,ENE,71,0.0,7.0,96,0.00,,,0.00,Wunderground v.1.15,2013-06-08 12:10:00,
2013-06-08 07:15:00,52.1,51.0,29.99,ENE,71,0.0,7.0,96,0.00,,,0.00,Wunderground v.1.15,2013-06-08 12:15:00,
2013-06-08 07:20:00,52.7,51.9,29.99,ENE,71,0.0,7.0,97,0.00,,,0.00,Wunderground v.1.15,2013-06-08 12:20:00,
2013-06-08 07:30:00,54.5,53.4,30.00,ENE,71,0.0,7.0,96,0.00,,,0.00,Wunderground v.1.15,2013-06-08 12:30:00,
2013-06-08 07:35:00,55.3,53.0,30.00,ENE,71,0.0,7.0,92,0.00,,,0.00,Wunderground v.1.15,2013-06-08 12:35:00,
2013-06-08 07:40:00,56.1,52.0,30.00,ENE,71,0.0,7.0,86,0.00,,,0.00,Wunderground v.1.15,2013-06-08 12:40:00,
2013-06-08 07:45:00,56.9,51.5,30.00,ENE,71,0.0,7.0,82,0.00,,,0.00,Wunderground v.1.15,2013-06-08 12:45:00,
2013-06-08 07:50:00,57.9,52.4,30.00,ENE,71,0.0,7.0,82,0.00,,,0.00,Wunderground v.1.15,2013-06-08 12:50:00,
2013-06-08 07:59:00,59.9,53.4,30.00,ENE,72,0.0,7.0,79,0.00,,,0.00,Wunderground v.1.15,2013-06-08 12:59:00,
2013-06-08 08:04:00,60.7,53.4,30.00,ENE,72,1.0,7.0,77,0.00,,,0.00,Wunderground v.1.15,2013-06-08 13:04:00,
2013-06-08 08:09:00,61.3,52.9,30.00,ENE,69,1.0,1.0,74,0.00,,,0.00,Wunderground v.1.15,2013-06-08 13:09:00,
2013-06-08 08:14:00,61.9,52.0,30.00,NE,53,1.0,7.0,70,0.00,,,0.00,Wunderground v.1.15,2013-06-08 13:14:00,
2013-06-08 08:19:00,62.4,50.9,30.00,NE,52,0.0,7.0,66,0.00,,,0.00,Wunderground v.1.15,2013-06-08 13:19:00,
2013-06-08 08:25:00,62.9,51.8,30.00,NE,52,1.0,7.0,67,0.00,,,0.00,Wunderground v.1.15,2013-06-08 13:25:00,
2013-06-08 08:30:00,63.6,53.6,30.00,NE,52,0.0,7.0,70,0.00,,,0.00,Wunderground v.1.15,2013-06-08 13:30:00,
2013-06-08 08:35:00,64.4,53.2,30.00,NE,52,0.0,7.0,67,0.00,,,0.00,Wunderground v.1.15,2013-06-08 13:35:00,
2013-06-08 08:40:00,65.1,53.9,30.00,ENE,67,0.0,7.0,67,0.00,,,0.00,Wunderground v.1.15,2013-06-08 13:40:00,
2013-06-08 08:45:00,65.6,53.9,30.00,ENE,68,0.0,7.0,66,0.00,,,0.00,Wunderground v.1.15,2013-06-08 13:45:00,
2013-06-08 08:50:00,66.0,53.5,30.00,East,82,1.0,1.0,64,0.00,,,0.00,Wunderground v.1.15,2013-06-08 13:50:00,
2013-06-08 08:55:00,66.4,53.8,30.00,East,82,0.0,7.0,64,0.00,,,0.00,Wunderground v.1.15,2013-06-08 13:55:00,
2013-06-08 09:05:00,67.1,54.5,30.00,East,101,1.0,7.0,64,0.00,,,0.00,Wunderground v.1.15,2013-06-08 14:05:00,
2013-06-08 09:10:00,67.5,53.1,30.00,ESE,111,1.0,7.0,60,0.00,,,0.00,Wunderground v.1.15,2013-06-08 14:10:00,
2013-06-08 09:15:00,67.8,52.5,30.00,ESE,111,1.0,7.0,58,0.00,,,0.00,Wunderground v.1.15,2013-06-08 14:15:00,
2013-06-08 09:20:00,68.2,53.3,29.99,ESE,111,1.0,1.0,59,0.00,,,0.00,Wunderground v.1.15,2013-06-08 14:20:00,
2013-06-08 09:25:00,68.8,54.3,30.00,ESE,111,0.0,7.0,60,0.00,,,0.00,Wunderground v.1.15,2013-06-08 14:25:00,
2013-06-08 09:35:00,69.5,52.6,29.99,ESE,111,1.0,7.0,55,0.00,,,0.00,Wunderground v.1.15,2013-06-08 14:35:00,
2013-06-08 09:40:00,69.8,54.4,29.99,SSE,168,1.0,1.0,58,0.00,,,0.00,Wunderground v.1.15,2013-06-08 14:40:00,
2013-06-08 09:45:00,70.3,53.9,29.99,SSE,153,1.0,7.0,56,0.00,,,0.00,Wunderground v.1.15,2013-06-08 14:45:00,
2013-06-08 09:50:00,70.5,53.6,29.98,SSE,148,0.0,7.0,55,0.00,,,0.00,Wunderground v.1.15,2013-06-08 14:50:00,
2013-06-08 09:55:00,70.8,53.3,29.98,SE,144,1.0,7.0,54,0.00,,,0.00,Wunderground v.1.15,2013-06-08 14:55:00,
2013-06-08 10:00:00,71.2,56.1,29.98,South,181,0.0,7.0,59,0.00,,,0.00,Wunderground v.1.15,2013-06-08 15:00:00,
2013-06-08 10:10:00,71.0,53.0,29.99,ESE,121,1.0,1.0,53,0.00,,,0.00,Wunderground v.1.15,2013-06-08 15:10:00,
2013-06-08 10:15:00,71.1,53.6,29.99,ESE,120,1.0,7.0,54,0.00,,,0.00,Wunderground v.1.15,2013-06-08 15:15:00,
2013-06-08 10:20:00,71.2,53.7,29.99,South,180,0.0,7.0,54,0.00,,,0.00,Wunderground v.1.15,2013-06-08 15:20:00,
2013-06-08 10:25:00,71.2,55.7,29.99,South,175,1.0,7.0,58,0.00,,,0.00,Wunderground v.1.15,2013-06-08 15:25:00,
2013-06-08 10:30:00,71.3,54.3,30.00,South,175,1.0,1.0,55,0.00,,,0.00,Wunderground v.1.15,2013-06-08 15:30:00,
2013-06-08 10:40:00,71.9,55.8,30.00,South,175,0.0,7.0,57,0.00,,,0.00,Wunderground v.1.15,2013-06-08 15:40:00,
2013-06-08 10:45:00,72.4,54.8,30.00,South,174,0.0,7.0,54,0.00,,,0.00,Wunderground v.1.15,2013-06-08 15:45:00,
2013-06-08 10:50:00,72.8,54.7,30.00,South,174,0.0,7.0,53,0.00,,,0.00,Wunderground v.1.15,2013-06-08 15:50:00,
2013-06-08 10:55:00,73.0,54.9,30.00,South,178,0.0,7.0,53,0.00,,,0.00,Wunderground v.1.15,2013-06-08 15:55:00,
2013-06-08 11:00:00,73.3,54.6,30.00,South,178,0.0,7.0,52,0.00,,,0.00,Wunderground v.1.15,2013-06-08 16:00:00,
2013-06-08 11:05:00,73.4,55.7,30.00,South,178,0.0,7.0,54,0.00,,,0.00,Wunderground v.1.15,2013-06-08 16:05:00,
2013-06-08 11:15:00,73.4,55.7,30.00,South,184,1.0,7.0,54,0.00,,,0.00,Wunderground v.1.15,2013-06-08 16:15:00,
2013-06-08 11:20:00,73.1,54.9,29.99,SSW,192,2.0,7.0,53,0.00,,,0.00,Wunderground v.1.15,2013-06-08 16:20:00,
2013-06-08 11:25:00,73.1,57.0,29.99,South,184,2.0,7.0,57,0.00,,,0.00,Wunderground v.1.15,2013-06-08 16:25:00,
2013-06-08 11:30:00,73.3,56.2,29.99,South,184,1.0,1.0,55,0.00,,,0.00,Wunderground v.1.15,2013-06-08 16:30:00,
2013-06-08 11:35:00,73.9,59.1,29.99,South,183,0.0,7.0,60,0.00,,,0.00,Wunderground v.1.15,2013-06-08 16:35:00,
2013-06-08 11:45:00,74.3,55.5,29.99,SSW,204,1.0,7.0,52,0.00,,,0.00,Wunderground v.1.15,2013-06-08 16:45:00,
2013-06-08 11:50:00,74.0,56.3,29.99,West,279,1.0,1.0,54,0.00,,,0.00,Wunderground v.1.15,2013-06-08 16:50:00,
2013-06-08 11:55:00,74.4,59.1,29.99,SW,223,1.0,7.0,59,0.00,,,0.00,Wunderground v.1.15,2013-06-08 16:55:00,
2013-06-08 12:00:00,74.4,57.7,29.99,SW,219,1.0,1.0,56,0.00,,,0.00,Wunderground v.1.15,2013-06-08 17:00:00,
2013-06-08 12:05:00,74.3,57.1,29.99,SW,215,2.0,2.0,55,0.00,,,0.00,Wunderground v.1.15,2013-06-08 17:05:00,
2013-06-08 12:10:00,74.4,57.2,29.99,SW,219,1.0,7.0,55,0.00,,,0.00,Wunderground v.1.15,2013-06-08 17:10:00,
2013-06-08 12:20:00,74.4,55.1,29.99,SW,227,2.0,2.0,51,0.00,,,0.00,Wunderground v.1.15,2013-06-08 17:20:00,
2013-06-08 12:25:00,74.5,58.8,29.98,SW,227,0.0,7.0,58,0.00,,,0.00,Wunderground v.1.15,2013-06-08 17:25:00,
2013-06-08 12:30:00,74.8,59.0,29.98,South,186,1.0,7.0,58,0.00,,,0.00,Wunderground v.1.15,2013-06-08 17:30:00,
2013-06-08 12:35:00,74.8,54.9,29.99,SSW,192,3.0,7.0,50,0.00,,,0.00,Wunderground v.1.15,2013-06-08 17:35:00,
2013-06-08 12:40:00,74.9,57.6,29.98,South,190,2.0,7.0,55,0.00,,,0.00,Wunderground v.1.15,2013-06-08 17:40:00,
2013-06-08 12:50:00,75.0,58.2,29.98,South,188,2.0,2.0,56,0.00,,,0.00,Wunderground v.1.15,2013-06-08 17:50:00,
2013-06-08 12:55:00,74.7,55.9,29.98,South,188,1.0,7.0,52,0.00,,,0.00,Wunderground v.1.15,2013-06-08 17:55:00,
2013-06-08 13:00:00,74.9,58.1,29.98,South,188,0.0,7.0,56,0.00,,,0.00,Wunderground v.1.15,2013-06-08 18:00:00,
2013-06-08 13:05:00,74.8,58.5,29.98,South,189,1.0,7.0,57,0.00,,,0.00,Wunderground v.1.15,2013-06-08 18:05:00,
2013-06-08 13:10:00,74.8,60.0,29.98,South,190,0.0,7.0,60,0.00,,,0.00,Wunderground v.1.15,2013-06-08 18:10:00,
2013-06-08 13:15:00,75.1,58.8,29.98,South,187,0.0,7.0,57,0.00,,,0.00,Wunderground v.1.15,2013-06-08 18:15:00,
2013-06-08 13:45:00,75.9,56.5,29.97,South,185,2.0,7.0,51,0.00,,,0.00,Wunderground v.1.15,2013-06-08 18:45:00,
2013-06-08 13:50:00,76.0,58.2,29.97,South,187,1.0,1.0,54,0.00,,,0.00,Wunderground v.1.15,2013-06-08 18:50:00,
2013-06-08 14:00:00,75.8,60.9,29.97,South,183,1.0,7.0,60,0.00,,,0.00,Wunderground v.1.15,2013-06-08 19:00:00,
2013-06-08 14:05:00,76.1,59.8,29.97,SSW,200,1.0,7.0,57,0.00,,,0.00,Wunderground v.1.15,2013-06-08 19:05:00,
2013-06-08 14:10:00,76.1,56.1,29.96,SSW,200,1.0,1.0,50,0.00,,,0.00,Wunderground v.1.15,2013-06-08 19:10:00,
2013-06-08 14:15:00,76.2,57.3,29.96,SSW,201,0.0,7.0,52,0.00,,,0.00,Wunderground v.1.15,2013-06-08 19:15:00,
2013-06-08 14:20:00,76.5,57.0,29.96,SSW,200,0.0,7.0,51,0.00,,,0.00,Wunderground v.1.15,2013-06-08 19:20:00,
2013-06-08 14:30:00,76.1,56.1,29.96,SW,232,1.0,1.0,50,0.00,,,0.00,Wunderground v.1.15,2013-06-08 19:30:00,
2013-06-08 14:35:00,76.0,59.2,29.96,SW,232,0.0,7.0,56,0.00,,,0.00,Wunderground v.1.15,2013-06-08 19:35:00,
2013-06-08 14:40:00,75.8,59.5,29.96,SW,232,0.0,7.0,57,0.00,,,0.00,Wunderground v.1.15,2013-06-08 19:40:00,
2013-06-08 14:45:00,75.9,57.0,29.96,SW,232,0.0,7.0,52,0.00,,,0.00,Wunderground v.1.15,2013-06-08 19:45:00,
2013-06-08 14:50:00,76.4,58.0,29.96,SW,232,0.0,7.0,53,0.00,,,0.00,Wunderground v.1.15,2013-06-08 19:50:00,
2013-06-08 14:55:00,76.3,56.3,29.96,SW,232,0.0,7.0,50,0.00,,,0.00,Wunderground v.1.15,2013-06-08 19:55:00,
2013-06-08 15:05:00,76.3,59.4,29.96,SW,232,0.0,7.0,56,0.00,,,0.00,Wunderground v.1.15,2013-06-08 20:05:00,
2013-06-08 15:10:00,76.1,58.8,29.96,SW,232,0.0,7.0,55,0.00,,,0.00,Wunderground v.1.15,2013-06-08 20:10:00,
2013-06-08 15:15:00,76.2,57.8,29.96,SW,232,0.0,7.0,53,0.00,,,0.00,Wunderground v.1.15,2013-06-08 20:15:00,
2013-06-08 15:20:00,76.4,57.5,29.96,SW,232,0.0,7.0,52,0.00,,,0.00,Wunderground v.1.15,2013-06-08 20:20:00,
2013-06-08 15:25:00,76.7,59.3,29.96,SW,232,1.0,7.0,55,0.00,,,0.00,Wunderground v.1.15,2013-06-08 20:25:00,
2013-06-08 15:35:00,77.0,59.1,29.96,SW,232,0.0,7.0,54,0.00,,,0.00,Wunderground v.1.15,2013-06-08 20:35:00,
2013-06-08 15:40:00,77.1,57.0,29.96,SW,232,0.0,7.0,50,0.00,,,0.00,Wunderground v.1.15,2013-06-08 20:40:00,
2013-06-08 15:45:00,77.1,55.9,29.96,SW,232,0.0,7.0,48,0.00,,,0.00,Wunderground v.1.15,2013-06-08 20:45:00,
2013-06-08 15:50:00,77.1,58.1,29.96,SW,232,0.0,7.0,52,0.00,,,0.00,Wunderground v.1.15,2013-06-08 20:50:00,
2013-06-08 15:55:00,77.3,58.3,29.96,SW,232,0.0,7.0,52,0.00,,,0.00,Wunderground v.1.15,2013-06-08 20:55:00,
2013-06-08 16:00:00,77.2,58.7,29.96,SW,232,0.0,7.0,53,0.00,,,0.00,Wunderground v.1.15,2013-06-08 21:00:00,
2013-06-08 16:05:00,77.0,57.5,29.96,SW,232,0.0,7.0,51,0.00,,,0.00,Wunderground v.1.15,2013-06-08 21:05:00,
2013-06-08 16:10:00,76.8,58.4,29.96,SW,232,0.0,7.0,53,0.00,,,0.00,Wunderground v.1.15,2013-06-08 21:10:00,
2013-06-08 16:15:00,76.9,55.7,29.95,SW,232,0.0,7.0,48,0.00,,,0.00,Wunderground v.1.15,2013-06-08 21:15:00,
2013-06-08 16:20:00,77.6,56.9,29.95,SW,232,0.0,7.0,49,0.00,,,0.00,Wunderground v.1.15,2013-06-08 21:20:00,
2013-06-08 16:25:00,78.3,59.8,29.95,SW,232,0.0,7.0,53,0.00,,,0.00,Wunderground v.1.15,2013-06-08 21:25:00,
2013-06-08 16:30:00,78.6,59.0,29.95,SW,232,0.0,7.0,51,0.00,,,0.00,Wunderground v.1.15,2013-06-08 21:30:00,
2013-06-08 16:40:00,78.6,59.0,29.96,SW,232,0.0,7.0,51,0.00,,,0.00,Wunderground v.1.15,2013-06-08 21:40:00,
2013-06-08 16:45:00,78.9,60.3,29.96,SW,232,0.0,7.0,53,0.00,,,0.00,Wunderground v.1.15,2013-06-08 21:45:00,
2013-06-08 16:50:00,79.1,58.9,29.96,SW,232,0.0,7.0,50,0.00,,,0.00,Wunderground v.1.15,2013-06-08 21:50:00,
2013-06-08 16:55:00,79.0,58.2,29.96,SW,232,0.0,7.0,49,0.00,,,0.00,Wunderground v.1.15,2013-06-08 21:55:00,
2013-06-08 17:00:00,79.1,58.3,29.96,SW,232,0.0,7.0,49,0.00,,,0.00,Wunderground v.1.15,2013-06-08 22:00:00,
2013-06-08 17:10:00,78.9,60.8,29.96,SW,233,0.0,7.0,54,0.00,,,0.00,Wunderground v.1.15,2013-06-08 22:10:00,
2013-06-08 17:15:00,78.5,58.3,29.96,SW,233,0.0,7.0,50,0.00,,,0.00,Wunderground v.1.15,2013-06-08 22:15:00,
2013-06-08 17:20:00,78.1,61.1,29.96,SW,233,0.0,7.0,56,0.00,,,0.00,Wunderground v.1.15,2013-06-08 22:20:00,
2013-06-08 17:25:00,77.9,56.6,29.96,SW,233,0.0,7.0,48,0.00,,,0.00,Wunderground v.1.15,2013-06-08 22:25:00,
2013-06-08 17:30:00,77.9,57.8,29.96,SW,233,0.0,7.0,50,0.00,,,0.00,Wunderground v.1.15,2013-06-08 22:30:00,
2013-06-08 17:35:00,78.1,57.9,29.95,SW,230,0.0,7.0,50,0.00,,,0.00,Wunderground v.1.15,2013-06-08 22:35:00,
2013-06-08 17:40:00,78.0,58.4,29.95,SW,225,0.0,7.0,51,0.00,,,0.00,Wunderground v.1.15,2013-06-08 22:40:00,
2013-06-08 17:45:00,77.6,56.9,29.95,SW,225,0.0,7.0,49,0.00,,,0.00,Wunderground v.1.15,2013-06-08 22:45:00,
2013-06-08 17:50:00,77.5,56.3,29.95,SW,225,0.0,7.0,48,0.00,,,0.00,Wunderground v.1.15,2013-06-08 22:50:00,
2013-06-08 17:55:00,77.6,59.1,29.95,SW,225,0.0,7.0,53,0.00,,,0.00,Wunderground v.1.15,2013-06-08 22:55:00,
2013-06-08 18:00:00,77.7,58.1,29.95,SW,225,0.0,7.0,51,0.00,,,0.00,Wunderground v.1.15,2013-06-08 23:00:00,
2013-06-08 18:05:00,77.8,57.7,29.95,SW,220,0.0,7.0,50,0.00,,,0.00,Wunderground v.1.15,2013-06-08 23:05:00,
2013-06-08 18:15:00,77.5,59.0,29.95,SW,221,0.0,7.0,53,0.00,,,0.00,Wunderground v.1.15,2013-06-08 23:15:00,
2013-06-08 18:20:00,77.7,58.7,29.95,SW,221,0.0,7.0,52,0.00,,,0.00,Wunderground v.1.15,2013-06-08 23:20:00,
2013-06-08 18:25:00,77.7,59.2,29.95,SW,221,0.0,7.0,53,0.00,,,0.00,Wunderground v.1.15,2013-06-08 23:25:00,
2013-06-08 18:30:00,77.6,59.6,29.95,SW,221,0.0,7.0,54,0.00,,,0.00,Wunderground v.1.15,2013-06-08 23:30:00,
2013-06-08 18:35:00,77.1,58.6,29.95,SW,221,0.0,7.0,53,0.00,,,0.00,Wunderground v.1.15,2013-06-08 23:35:00,
2013-06-08 18:40:00,76.7,60.3,29.96,SW,221,0.0,7.0,57,0.00,,,0.00,Wunderground v.1.15,2013-06-08 23:40:00,
2013-06-08 18:50:00,76.4,59.5,29.96,SW,221,0.0,7.0,56,0.00,,,0.00,Wunderground v.1.15,2013-06-08 23:50:00,
2013-06-08 18:55:00,76.2,60.3,29.96,SW,221,0.0,7.0,58,0.00,,,0.00,Wunderground v.1.15,2013-06-08 23:55:00,
2013-06-08 19:00:00,76.2,60.3,29.96,SW,221,0.0,7.0,58,0.00,,,0.00,Wunderground v.1.15,2013-06-09 00:00:00,
2013-06-08 19:05:00,76.0,57.6,29.96,SW,221,0.0,7.0,53,0.00,,,0.00,Wunderground v.1.15,2013-06-09 00:05:00,
2013-06-08 19:10:00,75.7,58.9,29.96,SW,221,0.0,7.0,56,0.00,,,0.00,Wunderground v.1.15,2013-06-09 00:10:00,
2013-06-08 19:20:00,75.1,59.8,29.96,SW,221,0.0,7.0,59,0.00,,,0.00,Wunderground v.1.15,2013-06-09 00:20:00,
2013-06-08 19:25:00,74.6,59.8,29.96,SW,221,0.0,7.0,60,0.00,,,0.00,Wunderground v.1.15,2013-06-09 00:25:00,
2013-06-08 19:30:00,74.0,60.2,29.96,SW,221,0.0,7.0,62,0.00,,,0.00,Wunderground v.1.15,2013-06-09 00:30:00,
2013-06-08 19:35:00,73.4,60.5,29.96,SW,221,0.0,7.0,64,0.00,,,0.00,Wunderground v.1.15,2013-06-09 00:35:00,
2013-06-08 19:40:00,72.9,60.9,29.96,SW,221,0.0,7.0,66,0.00,,,0.00,Wunderground v.1.15,2013-06-09 00:40:00,
2013-06-08 19:45:00,72.3,60.7,29.96,SW,221,0.0,7.0,67,0.00,,,0.00,Wunderground v.1.15,2013-06-09 00:45:00,
2013-06-08 19:50:00,71.8,61.1,29.96,SW,221,0.0,7.0,69,0.00,,,0.00,Wunderground v.1.15,2013-06-09 00:50:00,
2013-06-08 19:55:00,71.5,61.2,29.96,SW,221,0.0,7.0,70,0.00,,,0.00,Wunderground v.1.15,2013-06-09 00:55:00,
2013-06-08 20:00:00,71.0,61.1,29.96,SW,221,0.0,7.0,71,0.00,,,0.00,Wunderground v.1.15,2013-06-09 01:00:00,
2013-06-08 20:05:00,70.7,62.4,29.96,SW,221,0.0,7.0,75,0.00,,,0.00,Wunderground v.1.15,2013-06-09 01:05:00,
2013-06-08 20:10:00,70.3,62.0,29.96,SW,221,0.0,7.0,75,0.00,,,0.00,Wunderground v.1.15,2013-06-09 01:10:00,
2013-06-08 20:15:00,70.0,62.1,29.96,SW,221,0.0,7.0,76,0.00,,,0.00,Wunderground v.1.15,2013-06-09 01:15:00,
2013-06-08 20:25:00,69.5,62.0,29.96,SW,221,0.0,7.0,77,0.00,,,0.00,Wunderground v.1.15,2013-06-09 01:25:00,
2013-06-08 20:30:00,69.2,62.0,29.96,SW,221,0.0,7.0,78,0.00,,,0.00,Wunderground v.1.15,2013-06-09 01:30:00,
2013-06-08 20:35:00,69.0,61.9,29.96,SW,221,0.0,7.0,78,0.00,,,0.00,Wunderground v.1.15,2013-06-09 01:35:00,
2013-06-08 20:40:00,68.8,62.0,29.96,SW,221,0.0,7.0,79,0.00,,,0.00,Wunderground v.1.15,2013-06-09 01:40:00,
2013-06-08 20:45:00,68.5,62.1,29.96,SW,221,0.0,7.0,80,0.00,,,0.00,Wunderground v.1.15,2013-06-09 01:45:00,
2013-06-08 20:55:00,67.9,62.2,29.96,SW,221,0.0,7.0,82,0.00,,,0.00,Wunderground v.1.15,2013-06-09 01:55:00,
2013-06-08 21:00:00,67.7,62.0,29.96,SW,220,0.0,7.0,82,0.00,,,0.00,Wunderground v.1.15,2013-06-09 02:00:00,
2013-06-08 21:05:00,67.6,61.6,29.96,SW,221,0.0,7.0,81,0.00,,,0.00,Wunderground v.1.15,2013-06-09 02:05:00,
2013-06-08 21:10:00,67.4,61.0,29.96,SW,221,0.0,7.0,80,0.00,,,0.00,Wunderground v.1.15,2013-06-09 02:10:00,
2013-06-08 21:15:00,67.2,61.2,29.96,SW,220,0.0,7.0,81,0.00,,,0.00,Wunderground v.1.15,2013-06-09 02:15:00,
2013-06-08 21:20:00,67.1,61.8,29.96,SW,221,0.0,7.0,83,0.00,,,0.00,Wunderground v.1.15,2013-06-09 02:20:00,
2013-06-08 21:30:00,66.3,61.0,29.97,SW,221,0.0,7.0,83,0.00,,,0.00,Wunderground v.1.15,2013-06-09 02:30:00,
2013-06-08 21:35:00,65.8,60.2,29.97,SW,220,0.0,7.0,82,0.00,,,0.00,Wunderground v.1.15,2013-06-09 02:35:00,
2013-06-08 21:40:00,65.5,59.9,29.97,SW,221,0.0,7.0,82,0.00,,,0.00,Wunderground v.1.15,2013-06-09 02:40:00,
2013-06-08 21:45:00,65.2,59.6,29.97,SW,221,0.0,7.0,82,0.00,,,0.00,Wunderground v.1.15,2013-06-09 02:45:00,
2013-06-08 21:50:00,64.7,59.1,29.97,SW,221,0.0,7.0,82,0.00,,,0.00,Wunderground v.1.15,2013-06-09 02:50:00,
2013-06-08 22:00:00,64.4,59.5,29.98,SW,220,0.0,7.0,84,0.00,,,0.00,Wunderground v.1.15,2013-06-09 03:00:00,
2013-06-08 22:05:00,64.1,58.8,29.98,SW,220,0.0,7.0,83,0.00,,,0.00,Wunderground v.1.15,2013-06-09 03:05:00,
2013-06-08 22:10:00,63.9,59.3,29.98,SW,221,0.0,7.0,85,0.00,,,0.00,Wunderground v.1.15,2013-06-09 03:10:00,
2013-06-08 22:15:00,63.7,59.1,29.98,SW,221,0.0,7.0,85,0.00,,,0.00,Wunderground v.1.15,2013-06-09 03:15:00,
2013-06-08 22:20:00,63.4,58.8,29.98,SW,221,0.0,7.0,85,0.00,,,0.00,Wunderground v.1.15,2013-06-09 03:20:00,
2013-06-08 22:25:00,63.0,58.4,29.98,SW,221,0.0,7.0,85,0.00,,,0.00,Wunderground v.1.15,2013-06-09 03:25:00,
2013-06-08 22:35:00,62.5,58.3,29.99,SW,221,0.0,7.0,86,0.00,,,0.00,Wunderground v.1.15,2013-06-09 03:35:00,
2013-06-08 22:40:00,62.3,58.1,29.99,SW,220,0.0,7.0,86,0.00,,,0.00,Wunderground v.1.15,2013-06-09 03:40:00,
2013-06-08 22:45:00,62.2,58.0,29.99,SW,221,0.0,7.0,86,0.00,,,0.00,Wunderground v.1.15,2013-06-09 03:45:00,
2013-06-08 22:50:00,62.0,58.1,29.99,SW,220,0.0,7.0,87,0.00,,,0.00,Wunderground v.1.15,2013-06-09 03:50:00,
2013-06-08 22:55:00,61.8,57.6,29.99,SW,221,0.0,7.0,86,0.00,,,0.00,Wunderground v.1.15,2013-06-09 03:55:00,
2013-06-08 23:05:00,61.8,58.8,29.99,SW,221,0.0,7.0,90,0.00,,,0.00,Wunderground v.1.15,2013-06-09 04:05:00,
2013-06-08 23:10:00,61.9,58.9,29.99,SW,221,0.0,7.0,90,0.00,,,0.00,Wunderground v.1.15,2013-06-09 04:10:00,
2013-06-08 23:15:00,61.8,58.5,29.99,SW,221,0.0,7.0,89,0.00,,,0.00,Wunderground v.1.15,2013-06-09 04:15:00,
2013-06-08 23:20:00,61.7,58.1,29.99,SW,221,0.0,7.0,88,0.00,,,0.00,Wunderground v.1.15,2013-06-09 04:20:00,
2013-06-08 23:25:00,61.6,58.0,29.99,SW,221,0.0,7.0,88,0.00,,,0.00,Wunderground v.1.15,2013-06-09 04:25:00,
2013-06-08 23:30:00,61.6,57.7,29.99,SW,220,0.0,7.0,87,0.00,,,0.00,Wunderground v.1.15,2013-06-09 04:30:00,
2013-06-08 23:35:00,61.6,57.4,29.99,SW,221,0.0,7.0,86,0.00,,,0.00,Wunderground v.1.15,2013-06-09 04:35:00,
2013-06-08 23:40:00,61.7,57.1,29.99,SW,220,0.0,7.0,85,0.00,,,0.00,Wunderground v.1.15,2013-06-09 04:40:00,
2013-06-08 23:45:00,62.2,57.3,29.99,SW,220,0.0,7.0,84,0.00,,,0.00,Wunderground v.1.15,2013-06-09 04:45:00,
2013-06-08 23:50:00,62.6,57.4,29.99,SW,220,1.0,7.0,83,0.00,,,0.00,Wunderground v.1.15,2013-06-09 04:50:00,
2013-06-08 23:55:00,62.9,57.3,29.99,SW,221,2.0,7.0,82,0.00,,,0.00,Wunderground v.1.15,2013-06-09 04:55:00,